createdAt,value
2018-06-24T00:01:39.657Z,99797.36
2018-06-24T00:04:08.121Z,99794.87
2018-06-24T00:06:36.455Z,99794.36
2018-06-24T00:09:07.017Z,99800.45
2018-06-24T00:11:35.392Z,99792.25
2018-06-24T00:14:03.982Z,99794.95
2018-06-24T00:16:32.374Z,99790.80
2018-06-24T00:19:00.854Z,99783.98
2018-06-24T00:21:29.425Z,99787.41
2018-06-24T00:23:57.938Z,99790.03
2018-06-24T00:26:26.287Z,99787.41
2018-06-24T00:28:54.882Z,99788.33
2018-06-24T00:31:23.565Z,99788.36
2018-06-24T00:33:51.936Z,99785.33
2018-06-24T00:36:20.430Z,99786.78
2018-06-24T00:38:51.832Z,99783.74
2018-06-24T00:41:20.250Z,99790.13
2018-06-24T00:43:48.563Z,99788.42
2018-06-24T00:46:17.171Z,99788.42
2018-06-24T00:48:45.801Z,99775.59
2018-06-24T00:51:14.350Z,99775.00
2018-06-24T00:53:42.869Z,99782.14
2018-06-24T00:56:11.242Z,99769.58
2018-06-24T00:58:39.517Z,99767.47
2018-06-24T01:01:08.012Z,99774.56
2018-06-24T01:03:36.348Z,99775.12
2018-06-24T01:06:04.862Z,99773.69
2018-06-24T01:08:33.169Z,99773.39
2018-06-24T01:11:01.525Z,99764.42
2018-06-24T01:13:29.942Z,99771.56
2018-06-24T01:15:58.534Z,99773.73
2018-06-24T01:18:27.070Z,99782.08
2018-06-24T01:20:55.345Z,99778.80
2018-06-24T01:23:23.854Z,99781.11
2018-06-24T01:25:52.232Z,99780.00
2018-06-24T01:28:20.808Z,99781.91
2018-06-24T01:30:49.414Z,99774.69
2018-06-24T01:33:17.749Z,99770.84
2018-06-24T01:35:46.232Z,99774.02
2018-06-24T01:38:14.723Z,99777.03
2018-06-24T01:40:43.232Z,99773.08
2018-06-24T01:43:11.469Z,99771.71
2018-06-24T01:45:39.641Z,99783.33
2018-06-24T01:48:07.918Z,99780.07
2018-06-24T01:50:37.321Z,99780.53
2018-06-24T01:53:05.696Z,99786.50
2018-06-24T01:55:34.103Z,99789.14
2018-06-24T01:58:02.550Z,99787.55
2018-06-24T02:00:31.046Z,99786.34
2018-06-24T02:02:59.308Z,99786.63
2018-06-24T02:05:27.801Z,99787.33
2018-06-24T02:07:56.207Z,99793.63
2018-06-24T02:10:24.809Z,99789.13
2018-06-24T02:12:53.127Z,99794.56
2018-06-24T02:15:21.530Z,99787.65
2018-06-24T02:17:49.914Z,99784.76
2018-06-24T02:20:18.444Z,99784.74
2018-06-24T02:22:47.020Z,99786.09
2018-06-24T02:25:15.225Z,99786.48
2018-06-24T02:27:46.584Z,99789.02
2018-06-24T02:30:14.894Z,99782.95
2018-06-24T02:32:43.445Z,99779.94
2018-06-24T02:35:12.009Z,99784.03
2018-06-24T02:37:40.507Z,99785.50
2018-06-24T02:40:09.005Z,99787.41
2018-06-24T02:42:37.379Z,99783.64
2018-06-24T02:45:06.078Z,99784.97
2018-06-24T02:47:34.456Z,99772.99
2018-06-24T02:50:02.932Z,99775.91
2018-06-24T02:52:31.289Z,99774.34
2018-06-24T02:54:59.923Z,99773.02
2018-06-24T02:57:28.263Z,99779.78
2018-06-24T02:59:57.364Z,99783.04
2018-06-24T03:02:25.779Z,99775.56
2018-06-24T03:04:54.149Z,99777.88
2018-06-24T03:07:22.704Z,99780.18
2018-06-24T03:09:51.093Z,99788.14
2018-06-24T03:12:19.495Z,99784.03
2018-06-24T03:14:47.770Z,99785.10
2018-06-24T03:17:16.326Z,99784.86
2018-06-24T03:19:44.958Z,99791.14
2018-06-24T03:22:14.063Z,99796.48
2018-06-24T03:24:42.501Z,99791.41
2018-06-24T03:27:11.080Z,99800.38
2018-06-24T03:29:39.350Z,99796.25
2018-06-24T03:32:07.934Z,99796.14
2018-06-24T03:34:36.205Z,99798.94
2018-06-24T03:37:04.386Z,99805.95
2018-06-24T03:39:32.648Z,99806.55
2018-06-24T03:42:01.143Z,99796.50
2018-06-24T03:44:29.628Z,99794.66
2018-06-24T03:46:58.001Z,99789.13
2018-06-24T03:49:26.498Z,99787.55
2018-06-24T03:51:54.778Z,99785.94
2018-06-24T03:54:23.241Z,99780.16
2018-06-24T03:56:51.824Z,99775.06
2018-06-24T03:59:20.301Z,99770.34
2018-06-24T04:01:48.693Z,99770.35
2018-06-24T04:04:17.090Z,99772.52
2018-06-24T04:06:45.614Z,99777.95
2018-06-24T04:09:14.206Z,99779.52
2018-06-24T04:11:42.802Z,99782.05
2018-06-24T04:14:11.231Z,99775.16
2018-06-24T04:16:39.684Z,99781.85
2018-06-24T04:19:08.186Z,99794.20
2018-06-24T04:21:36.448Z,99788.73
2018-06-24T04:24:04.918Z,99796.48
2018-06-24T04:26:33.282Z,99792.73
2018-06-24T04:29:01.577Z,99793.64
2018-06-24T04:31:30.157Z,99807.30
2018-06-24T04:33:58.737Z,99810.66
2018-06-24T04:36:27.010Z,99818.08
2018-06-24T04:38:55.612Z,99820.73
2018-06-24T04:41:23.983Z,99819.25
2018-06-24T04:43:53.061Z,99824.80
2018-06-24T04:46:21.641Z,99824.80
2018-06-24T04:48:50.241Z,99824.69
2018-06-24T04:51:18.530Z,99828.55
2018-06-24T04:53:46.925Z,99834.12
2018-06-24T04:56:15.245Z,99834.75
2018-06-24T04:58:43.558Z,99834.31
2018-06-24T05:01:11.933Z,99832.00
2018-06-24T05:03:40.314Z,99831.76
2018-06-24T05:06:08.500Z,99838.53
2018-06-24T05:08:37.002Z,99843.50
2018-06-24T05:11:06.485Z,99846.04
2018-06-24T05:13:35.134Z,99852.59
2018-06-24T05:16:03.327Z,99847.69
2018-06-24T05:18:31.384Z,99840.08
2018-06-24T05:20:59.337Z,99846.25
2018-06-24T05:23:27.270Z,99840.94
2018-06-24T05:25:55.409Z,99838.18
2018-06-24T05:28:23.697Z,99838.42
2018-06-24T05:30:52.129Z,99837.65
2018-06-24T05:33:20.201Z,99841.19
2018-06-24T05:35:48.517Z,99841.30
2018-06-24T05:38:17.017Z,99845.88
2018-06-24T05:40:45.609Z,99838.42
2018-06-24T05:43:13.963Z,99843.13
2018-06-24T05:45:42.028Z,99830.65
2018-06-24T05:48:10.418Z,99832.83
2018-06-24T05:50:38.905Z,99826.52
2018-06-24T05:53:07.204Z,99831.23
2018-06-24T05:55:36.193Z,99831.52
2018-06-24T05:58:04.862Z,99829.23
2018-06-24T06:00:33.244Z,99824.59
2018-06-24T06:03:01.827Z,99825.80
2018-06-24T06:05:30.301Z,99822.41
2018-06-24T06:07:58.785Z,99818.42
2018-06-24T06:10:26.996Z,99815.72
2018-06-24T06:12:55.572Z,99823.66
2018-06-24T06:15:24.017Z,99826.04
2018-06-24T06:17:52.321Z,99821.76
2018-06-24T06:20:20.843Z,99825.43
2018-06-24T06:22:49.380Z,99822.04
2018-06-24T06:25:17.841Z,99821.97
2018-06-24T06:27:46.117Z,99824.88
2018-06-24T06:30:14.508Z,99831.13
2018-06-24T06:32:45.748Z,99831.11
2018-06-24T06:35:14.130Z,99825.20
2018-06-24T06:37:42.708Z,99836.02
2018-06-24T06:40:11.290Z,99834.91
2018-06-24T06:42:39.691Z,99835.34
2018-06-24T06:45:08.216Z,99834.92
2018-06-24T06:47:36.691Z,99825.81
2018-06-24T06:50:05.843Z,99829.42
2018-06-24T06:52:34.217Z,99824.69
2018-06-24T06:55:02.489Z,99827.48
2018-06-24T06:57:31.114Z,99833.06
2018-06-24T06:59:59.454Z,99833.06
2018-06-24T07:02:28.074Z,99832.62
2018-06-24T07:04:56.671Z,99828.13
2018-06-24T07:07:25.001Z,99829.89
2018-06-24T07:09:53.260Z,99826.70
2018-06-24T07:12:21.762Z,99828.69
2018-06-24T07:14:49.926Z,99835.05
2018-06-24T07:17:19.429Z,99833.34
2018-06-24T07:19:48.646Z,99833.05
2018-06-24T07:22:17.016Z,99838.30
2018-06-24T07:24:45.287Z,99840.43
2018-06-24T07:27:17.988Z,99845.34
2018-06-24T07:29:51.858Z,99843.14
2018-06-24T07:32:20.057Z,99844.32
2018-06-24T07:34:48.563Z,99848.39
2018-06-24T07:37:16.816Z,99854.78
2018-06-24T07:39:45.172Z,99848.39
2018-06-24T07:42:13.468Z,99848.95
2018-06-24T07:44:41.921Z,99846.15
2018-06-24T07:47:10.151Z,99847.30
2018-06-24T07:49:38.618Z,99853.85
2018-06-24T07:52:06.885Z,99856.02
2018-06-24T07:54:35.357Z,99856.41
2018-06-24T07:57:03.842Z,99862.29
2018-06-24T07:59:32.155Z,99860.78
2018-06-24T08:02:00.714Z,99865.68
2018-06-24T08:04:29.038Z,99866.52
2018-06-24T08:06:57.541Z,99865.20
2018-06-24T08:09:26.153Z,99867.81
2018-06-24T08:11:54.629Z,99872.09
2018-06-24T08:14:23.319Z,99870.52
2018-06-24T08:16:51.807Z,99863.84
2018-06-24T08:19:20.181Z,99869.86
2018-06-24T08:21:48.674Z,99872.67
2018-06-24T08:24:16.992Z,99867.12
2018-06-24T08:26:45.423Z,99864.26
2018-06-24T08:29:13.801Z,99873.11
2018-06-24T08:31:42.267Z,99869.56
2018-06-24T08:34:10.797Z,99865.75
2018-06-24T08:36:39.354Z,99865.84
2018-06-24T08:39:09.114Z,99865.63
2018-06-24T08:41:37.671Z,99876.27
2018-06-24T08:44:07.219Z,99873.67
2018-06-24T08:46:35.886Z,99871.43
2018-06-24T08:49:04.625Z,99872.09
2018-06-24T08:51:33.203Z,99867.58
2018-06-24T08:54:02.446Z,99871.36
2018-06-24T08:56:30.994Z,99868.19
2018-06-24T08:58:59.485Z,99867.70
2018-06-24T09:01:27.959Z,99867.95
2018-06-24T09:03:56.334Z,99868.03
2018-06-24T09:06:24.811Z,99862.28
2018-06-24T09:08:53.199Z,99862.14
2018-06-24T09:11:21.574Z,99857.36
2018-06-24T09:13:50.046Z,99855.66
2018-06-24T09:16:18.430Z,99859.42
2018-06-24T09:18:46.954Z,99849.20
2018-06-24T09:21:15.407Z,99847.73
2018-06-24T09:23:43.870Z,99843.05
2018-06-24T09:26:12.514Z,99846.64
2018-06-24T09:28:40.842Z,99840.69
2018-06-24T09:31:09.831Z,99839.80
2018-06-24T09:33:39.439Z,99840.47
2018-06-24T09:36:08.162Z,99841.87
2018-06-24T09:38:36.594Z,99838.86
2018-06-24T09:41:05.317Z,99834.64
2018-06-24T09:43:33.704Z,99835.73
2018-06-24T09:46:02.565Z,99826.89
2018-06-24T09:48:31.312Z,99828.88
2018-06-24T09:51:00.065Z,99827.86
2018-06-24T09:53:29.274Z,99823.70
2018-06-24T09:55:57.755Z,99822.34
2018-06-24T09:58:26.205Z,99818.55
2018-06-24T10:00:54.712Z,99821.75
2018-06-24T10:03:24.219Z,99811.50
2018-06-24T10:05:52.850Z,99807.62
2018-06-24T10:08:21.153Z,99798.08
2018-06-24T10:10:50.205Z,99798.92
2018-06-24T10:13:18.842Z,99796.47
2018-06-24T10:15:47.314Z,99796.38
2018-06-24T10:18:15.738Z,99792.84
2018-06-24T10:20:44.382Z,99792.42
2018-06-24T10:23:12.965Z,99789.58
2018-06-24T10:25:41.349Z,99785.89
2018-06-24T10:28:09.720Z,99790.09
2018-06-24T10:30:38.337Z,99787.99
2018-06-24T10:33:07.514Z,99785.90
2018-06-24T10:35:35.974Z,99782.53
2018-06-24T10:38:04.678Z,99778.89
2018-06-24T10:40:33.290Z,99779.23
2018-06-24T10:43:01.788Z,99771.75
2018-06-24T10:45:30.358Z,99769.74
2018-06-24T10:47:58.810Z,99775.05
2018-06-24T10:50:27.207Z,99775.25
2018-06-24T10:52:55.743Z,99772.03
2018-06-24T10:55:24.394Z,99767.17
2018-06-24T10:57:52.737Z,99759.86
2018-06-24T11:00:21.337Z,99754.23
2018-06-24T11:02:49.907Z,99761.00
2018-06-24T11:05:18.377Z,99753.70
2018-06-24T11:07:46.895Z,99753.27
2018-06-24T11:10:15.728Z,99749.53
2018-06-24T11:12:44.133Z,99750.89
2018-06-24T11:15:12.755Z,99737.06
2018-06-24T11:17:41.290Z,99741.00
2018-06-24T11:20:09.777Z,99741.55
2018-06-24T11:22:38.225Z,99742.63
2018-06-24T11:25:06.857Z,99738.50
2018-06-24T11:27:35.221Z,99738.88
2018-06-24T11:30:03.865Z,99731.46
2018-06-24T11:32:32.381Z,99728.73
2018-06-24T11:35:01.030Z,99729.28
2018-06-24T11:37:29.512Z,99727.70
2018-06-24T11:39:58.066Z,99723.91
2018-06-24T11:42:26.308Z,99726.94
2018-06-24T11:44:54.946Z,99719.02
2018-06-24T11:47:23.572Z,99721.70
2018-06-24T11:49:51.974Z,99719.14
2018-06-24T11:52:20.601Z,99721.02
2018-06-24T11:54:49.261Z,99719.10
2018-06-24T11:57:17.598Z,99716.45
2018-06-24T11:59:46.321Z,99716.46
2018-06-24T12:02:14.717Z,99715.11
2018-06-24T12:04:43.040Z,99705.83
2018-06-24T12:07:11.416Z,99705.66
2018-06-24T12:09:39.851Z,99702.66
2018-06-24T12:12:08.491Z,99704.30
2018-06-24T12:14:37.897Z,99701.13
2018-06-24T12:17:06.338Z,99702.47
2018-06-24T12:19:34.779Z,99705.60
2018-06-24T12:22:03.188Z,99696.73
2018-06-24T12:24:31.670Z,99689.72
2018-06-24T12:27:00.303Z,99690.59
2018-06-24T12:29:28.809Z,99687.78
2018-06-24T12:31:57.506Z,99680.06
2018-06-24T12:34:26.782Z,99682.19
2018-06-24T12:36:55.248Z,99678.38
2018-06-24T12:39:23.651Z,99680.35
2018-06-24T12:41:52.965Z,99676.41
2018-06-24T12:44:21.404Z,99683.19
2018-06-24T12:46:49.938Z,99676.96
2018-06-24T12:49:18.482Z,99661.69
2018-06-24T12:51:46.926Z,99662.52
2018-06-24T12:54:15.450Z,99665.27
2018-06-24T12:56:43.943Z,99669.86
2018-06-24T12:59:12.744Z,99659.75
2018-06-24T13:01:40.997Z,99667.45
2018-06-24T13:04:09.651Z,99662.78
2018-06-24T13:06:37.998Z,99660.30
2018-06-24T13:09:08.184Z,99660.42
2018-06-24T13:11:36.724Z,99658.05
2018-06-24T13:14:05.284Z,99656.62
2018-06-24T13:16:33.630Z,99656.06
2018-06-24T13:19:02.249Z,99650.27
2018-06-24T13:21:30.697Z,99658.44
2018-06-24T13:23:59.205Z,99655.63
2018-06-24T13:26:28.739Z,99644.96
2018-06-24T13:28:57.268Z,99641.60
2018-06-24T13:31:25.742Z,99637.92
2018-06-24T13:33:54.475Z,99642.97
2018-06-24T13:36:22.853Z,99640.50
2018-06-24T13:38:51.345Z,99647.57
2018-06-24T13:41:19.923Z,99651.28
2018-06-24T13:43:48.450Z,99652.10
2018-06-24T13:46:16.930Z,99651.11
2018-06-24T13:48:45.554Z,99645.34
2018-06-24T13:51:14.036Z,99640.96
2018-06-24T13:53:42.581Z,99641.78
2018-06-24T13:56:11.228Z,99641.92
2018-06-24T13:58:40.790Z,99640.26
2018-06-24T14:01:09.266Z,99642.80
2018-06-24T14:03:37.700Z,99634.65
2018-06-24T14:06:06.148Z,99630.44
2018-06-24T14:08:34.872Z,99634.45
2018-06-24T14:11:03.237Z,99625.22
2018-06-24T14:13:31.783Z,99625.54
2018-06-24T14:16:00.324Z,99623.88
2018-06-24T14:18:29.026Z,99620.17
2018-06-24T14:20:57.562Z,99620.79
2018-06-24T14:23:25.996Z,99616.83
2018-06-24T14:25:54.528Z,99617.63
2018-06-24T14:28:23.179Z,99616.08
2018-06-24T14:30:52.682Z,99625.02
2018-06-24T14:33:21.341Z,99624.20
2018-06-24T14:35:52.482Z,99619.64
2018-06-24T14:38:20.841Z,99621.64
2018-06-24T14:40:49.128Z,99618.44
2018-06-24T14:43:17.654Z,99625.17
2018-06-24T14:45:46.363Z,99618.27
2018-06-24T14:48:14.822Z,99618.82
2018-06-24T14:50:43.774Z,99617.38
2018-06-24T14:53:12.338Z,99619.43
2018-06-24T14:55:40.891Z,99618.23
2018-06-24T14:58:09.652Z,99625.09
2018-06-24T15:00:41.172Z,99617.49
2018-06-24T15:03:09.593Z,99611.45
2018-06-24T15:05:38.179Z,99611.27
2018-06-24T15:08:06.826Z,99613.64
2018-06-24T15:10:35.270Z,99605.47
2018-06-24T15:13:03.934Z,99609.20
2018-06-24T15:15:33.058Z,99608.07
2018-06-24T15:18:01.393Z,99612.43
2018-06-24T15:20:29.898Z,99611.76
2018-06-24T15:22:58.338Z,99608.23
2018-06-24T15:25:26.849Z,99608.69
2018-06-24T15:27:55.746Z,99612.41
2018-06-24T15:30:24.182Z,99607.35
2018-06-24T15:32:52.693Z,99605.69
2018-06-24T15:35:20.978Z,99604.19
2018-06-24T15:37:49.522Z,99604.16
2018-06-24T15:40:17.976Z,99604.63
2018-06-24T15:42:46.624Z,99607.09
2018-06-24T15:45:15.205Z,99607.31
2018-06-24T15:47:43.644Z,99603.74
2018-06-24T15:50:12.288Z,99610.00
2018-06-24T15:52:40.877Z,99610.70
2018-06-24T15:55:09.312Z,99614.80
2018-06-24T15:57:37.818Z,99619.02
2018-06-24T16:00:06.500Z,99616.86
2018-06-24T16:02:34.925Z,99616.86
2018-06-24T16:05:03.366Z,99619.86
2018-06-24T16:07:31.763Z,99617.73
2018-06-24T16:10:00.387Z,99623.69
2018-06-24T16:12:28.622Z,99625.72
2018-06-24T16:14:57.085Z,99625.05
2018-06-24T16:17:25.504Z,99633.45
2018-06-24T16:19:54.046Z,99636.10
2018-06-24T16:22:22.539Z,99643.23
2018-06-24T16:24:51.484Z,99643.77
2018-06-24T16:27:19.897Z,99643.36
2018-06-24T16:29:48.406Z,99640.27
2018-06-24T16:32:16.804Z,99644.75
2018-06-24T16:34:45.456Z,99645.15
2018-06-24T16:37:13.650Z,99646.47
2018-06-24T16:39:41.717Z,99648.34
2018-06-24T16:42:09.743Z,99649.39
2018-06-24T16:44:37.685Z,99649.02
2018-06-24T16:47:06.066Z,99652.44
2018-06-24T16:49:34.606Z,99649.55
2018-06-24T16:52:02.881Z,99653.78
2018-06-24T16:54:31.313Z,99659.31
2018-06-24T16:56:59.562Z,99657.99
2018-06-24T16:59:34.118Z,99658.16
2018-06-24T17:02:02.637Z,99657.03
2018-06-24T17:04:30.978Z,99655.31
2018-06-24T17:06:59.345Z,99661.16
2018-06-24T17:09:27.909Z,99656.11
2018-06-24T17:11:56.410Z,99657.83
2018-06-24T17:14:24.888Z,99657.59
2018-06-24T17:16:53.512Z,99654.75
2018-06-24T17:19:21.963Z,99656.94
2018-06-24T17:21:50.441Z,99650.58
2018-06-24T17:24:19.077Z,99658.95
2018-06-24T17:26:47.614Z,99656.52
2018-06-24T17:29:15.994Z,99659.13
2018-06-24T17:31:44.758Z,99661.70
2018-06-24T17:34:13.160Z,99663.06
2018-06-24T17:36:41.633Z,99669.36
2018-06-24T17:39:11.350Z,99667.45
2018-06-24T17:41:39.846Z,99667.25
2018-06-24T17:44:08.514Z,99668.28
2018-06-24T17:46:37.116Z,99672.92
2018-06-24T17:49:05.569Z,99666.25
2018-06-24T17:51:34.219Z,99673.92
2018-06-24T17:54:02.802Z,99676.17
2018-06-24T17:56:31.931Z,99675.84
2018-06-24T17:59:00.518Z,99679.13
2018-06-24T18:01:29.101Z,99683.28
2018-06-24T18:03:57.524Z,99689.01
2018-06-24T18:06:25.974Z,99690.20
2018-06-24T18:08:54.629Z,99694.72
2018-06-24T18:11:23.149Z,99700.80
2018-06-24T18:13:51.552Z,99703.04
2018-06-24T18:16:21.605Z,99706.38
2018-06-24T18:18:50.037Z,99708.80
2018-06-24T18:21:18.610Z,99717.38
2018-06-24T18:23:47.202Z,99726.78
2018-06-24T18:26:15.769Z,99732.55
2018-06-24T18:28:44.190Z,99727.89
2018-06-24T18:31:12.534Z,99738.02
2018-06-24T18:33:41.017Z,99742.83
2018-06-24T18:36:09.766Z,99753.32
2018-06-24T18:38:38.280Z,99754.61
2018-06-24T18:41:06.840Z,99754.15
2018-06-24T18:43:35.342Z,99753.47
2018-06-24T18:46:04.025Z,99760.09
2018-06-24T18:48:32.485Z,99760.22
2018-06-24T18:51:00.992Z,99760.16
2018-06-24T18:53:29.599Z,99763.59
2018-06-24T18:55:57.965Z,99767.34
2018-06-24T18:58:26.339Z,99779.08
2018-06-24T19:00:54.733Z,99776.95
2018-06-24T19:03:23.332Z,99783.38
2018-06-24T19:05:51.869Z,99789.38
2018-06-24T19:08:20.624Z,99792.05
2018-06-24T19:10:49.040Z,99788.67
2018-06-24T19:13:17.422Z,99789.69
2018-06-24T19:15:46.024Z,99788.86
2018-06-24T19:18:14.491Z,99792.94
2018-06-24T19:20:43.033Z,99789.78
2018-06-24T19:23:12.237Z,99793.37
2018-06-24T19:25:40.678Z,99797.36
2018-06-24T19:28:09.032Z,99790.67
2018-06-24T19:30:37.593Z,99788.17
2018-06-24T19:33:05.912Z,99783.80
2018-06-24T19:35:34.326Z,99781.67
2018-06-24T19:38:02.770Z,99787.97
2018-06-24T19:40:31.145Z,99790.34
2018-06-24T19:42:59.868Z,99794.18
2018-06-24T19:45:28.306Z,99796.92
2018-06-24T19:47:56.690Z,99796.63
2018-06-24T19:50:25.304Z,99792.58
2018-06-24T19:52:53.860Z,99789.39
2018-06-24T19:55:22.288Z,99791.27
2018-06-24T19:57:50.765Z,99782.84
2018-06-24T20:00:19.309Z,99781.84
2018-06-24T20:02:47.980Z,99789.23
2018-06-24T20:05:16.436Z,99787.63
2018-06-24T20:07:45.058Z,99793.20
2018-06-24T20:10:13.462Z,99796.68
2018-06-24T20:12:42.133Z,99796.63
2018-06-24T20:15:10.368Z,99801.72
2018-06-24T20:17:38.981Z,99798.37
2018-06-24T20:20:07.078Z,99795.33
2018-06-24T20:22:35.684Z,99800.23
2018-06-24T20:25:04.209Z,99802.63
2018-06-24T20:27:32.607Z,99811.27
2018-06-24T20:30:01.237Z,99813.53
2018-06-24T20:32:29.662Z,99818.70
2018-06-24T20:34:58.277Z,99813.59
2018-06-24T20:37:27.102Z,99816.23
2018-06-24T20:39:55.425Z,99813.08
2018-06-24T20:42:23.892Z,99805.24
2018-06-24T20:44:52.321Z,99809.53
2018-06-24T20:47:20.761Z,99803.83
2018-06-24T20:49:49.328Z,99799.08
2018-06-24T20:52:17.833Z,99799.20
2018-06-24T20:54:46.340Z,99798.55
2018-06-24T20:57:14.905Z,99805.40
2018-06-24T20:59:43.408Z,99807.33
2018-06-24T21:02:11.945Z,99808.25
2018-06-24T21:04:40.413Z,99812.02
2018-06-24T21:07:08.900Z,99811.80
2018-06-24T21:09:37.177Z,99810.41
2018-06-24T21:12:05.704Z,99807.42
2018-06-24T21:14:34.234Z,99812.48
2018-06-24T21:17:02.842Z,99807.88
2018-06-24T21:19:31.327Z,99810.20
2018-06-24T21:21:59.732Z,99813.77
2018-06-24T21:24:32.317Z,99813.66
2018-06-24T21:27:00.949Z,99816.16
2018-06-24T21:29:29.554Z,99809.19
2018-06-24T21:31:57.916Z,99808.50
2018-06-24T21:34:26.448Z,99808.71
2018-06-24T21:36:55.410Z,99809.45
2018-06-24T21:39:23.882Z,99808.98
2018-06-24T21:41:52.395Z,99801.83
2018-06-24T21:44:21.592Z,99796.73
2018-06-24T21:46:50.395Z,99792.31
2018-06-24T21:49:18.990Z,99802.36
2018-06-24T21:51:47.500Z,99801.26
2018-06-24T21:54:16.077Z,99808.57
2018-06-24T21:56:44.536Z,99804.89
2018-06-24T21:59:12.958Z,99805.29
2018-06-24T22:01:41.459Z,99811.71
2018-06-24T22:04:10.077Z,99803.30
2018-06-24T22:06:38.576Z,99808.28
2018-06-24T22:09:10.065Z,99802.70
2018-06-24T22:11:38.344Z,99807.64
2018-06-24T22:14:06.925Z,99807.87
2018-06-24T22:16:35.470Z,99793.76
2018-06-24T22:19:03.801Z,99794.16
2018-06-24T22:21:33.044Z,99796.62
2018-06-24T22:24:01.664Z,99795.59
2018-06-24T22:26:30.157Z,99796.48
2018-06-24T22:28:58.544Z,99797.30
2018-06-24T22:31:27.153Z,99801.81
2018-06-24T22:33:56.413Z,99803.63
2018-06-24T22:36:25.163Z,99797.39
2018-06-24T22:38:53.636Z,99801.34
2018-06-24T22:41:22.019Z,99794.95
2018-06-24T22:43:50.597Z,99793.00
2018-06-24T22:46:18.970Z,99792.16
2018-06-24T22:48:47.511Z,99794.16
2018-06-24T22:51:15.793Z,99789.69
2018-06-24T22:53:44.214Z,99786.69
2018-06-24T22:56:12.646Z,99793.06
2018-06-24T22:58:41.025Z,99787.50
2018-06-24T23:01:09.654Z,99787.87
2018-06-24T23:03:38.107Z,99788.50
2018-06-24T23:06:06.714Z,99786.96
2018-06-24T23:08:35.226Z,99788.16
2018-06-24T23:11:03.678Z,99785.65
2018-06-24T23:13:32.222Z,99786.36
2018-06-24T23:16:00.718Z,99786.34
2018-06-24T23:18:29.087Z,99786.97
2018-06-24T23:20:57.494Z,99791.16
2018-06-24T23:23:26.060Z,99789.25
2018-06-24T23:25:54.683Z,99784.72
2018-06-24T23:28:23.020Z,99781.11
2018-06-24T23:30:51.497Z,99773.86
2018-06-24T23:33:20.003Z,99781.72
2018-06-24T23:35:48.556Z,99788.39
2018-06-24T23:38:17.045Z,99789.48
2018-06-24T23:40:45.525Z,99786.72
2018-06-24T23:43:13.993Z,99778.73
2018-06-24T23:45:42.181Z,99775.69
2018-06-24T23:48:10.554Z,99780.30
2018-06-24T23:50:39.153Z,99777.16
2018-06-24T23:53:07.560Z,99778.97
2018-06-24T23:55:36.649Z,99774.63
2018-06-24T23:58:05.203Z,99776.89
